Time;durP1;ratioP1;P1;durP2;ratioP2;P2;SDS_P1;SDS_P2;PMS_P1;PMS_P2;Temp;Humidity;BMP_temperature;BMP_pressure;BME280_temperature;BME280_humidity;BME280_pressure;Samples;Min_cycle;Max_cycle;Signal;HPM_P1;HPM_P2
2022/06/11 00:01:43;;;;;;;5.97;3.10;;;23.00;86.30;;;;;;5035540;28;20202;-76
2022/06/11 00:04:14;;;;;;;5.13;2.83;;;23.00;86.30;;;;;;5040352;28;20191;-76
2022/06/11 00:06:45;;;;;;;5.18;2.80;;;23.00;86.30;;;;;;5042002;28;20202;-76
2022/06/11 00:09:15;;;;;;;4.57;2.50;;;23.00;86.30;;;;;;5043696;28;20199;-76
2022/06/11 00:11:44;;;;;;;5.63;3.20;;;23.10;86.30;;;;;;5039395;28;20199;-76
2022/06/11 00:14:15;;;;;;;3.88;3.00;;;23.00;86.40;;;;;;5039947;28;20231;-76
2022/06/11 00:16:44;;;;;;;4.90;3.05;;;23.00;86.40;;;;;;5041181;28;20203;-76
2022/06/11 00:19:13;;;;;;;5.50;3.00;;;23.00;86.70;;;;;;5041767;28;20648;-76
2022/06/11 00:21:47;;;;;;;5.43;3.00;;;23.00;87.10;;;;;;5041272;28;20649;-77
2022/06/11 00:24:15;;;;;;;5.35;2.92;;;23.00;87.40;;;;;;5039159;28;20270;-76
2022/06/11 00:26:45;;;;;;;5.88;3.25;;;23.00;87.60;;;;;;5040503;28;20680;-77
2022/06/11 00:29:17;;;;;;;8.65;3.63;;;22.90;87.70;;;;;;5043054;28;20203;-76
2022/06/11 00:31:46;;;;;;;5.38;3.17;;;22.90;87.60;;;;;;5042569;28;20189;-76
2022/06/11 00:34:15;;;;;;;7.03;3.40;;;22.90;87.80;;;;;;5041206;28;21190;-76
2022/06/11 00:36:45;;;;;;;5.22;3.22;;;22.90;87.70;;;;;;5044120;28;20199;-76
2022/06/11 00:39:16;;;;;;;7.05;2.97;;;22.90;87.70;;;;;;5043137;28;20214;-77
2022/06/11 00:41:47;;;;;;;4.43;3.10;;;22.90;87.70;;;;;;5043536;28;20199;-77
2022/06/11 00:44:17;;;;;;;5.10;3.50;;;22.90;87.80;;;;;;5044576;28;20524;-76
2022/06/11 00:46:57;;;;;;;5.43;3.33;;;22.90;88.00;;;;;;5044313;28;20187;-76
2022/06/11 00:49:34;;;;;;;11.55;3.60;;;22.90;87.90;;;;;;5038888;28;20882;-76
2022/06/11 00:52:16;;;;;;;9.35;3.58;;;22.90;87.90;;;;;;5042017;28;20190;-77
2022/06/11 00:54:48;;;;;;;6.38;3.28;;;22.90;88.00;;;;;;5038545;28;20211;-76
2022/06/11 00:57:17;;;;;;;7.43;3.67;;;22.90;88.00;;;;;;5042075;28;20632;-76
2022/06/11 00:59:50;;;;;;;6.63;3.42;;;22.90;88.00;;;;;;5040592;28;20187;-76
2022/06/11 01:02:19;;;;;;;12.25;4.00;;;22.90;88.30;;;;;;5041519;28;20191;-76
2022/06/11 01:04:52;;;;;;;7.93;3.65;;;22.90;88.40;;;;;;5044941;28;20198;-76
2022/06/11 01:07:56;;;;;;;6.95;3.88;;;22.90;88.60;;;;;;5041171;28;20613;-76
2022/06/11 01:10:50;;;;;;;6.22;3.78;;;22.90;88.60;;;;;;5040157;28;20252;-76
2022/06/11 01:13:32;;;;;;;6.20;3.92;;;22.90;88.60;;;;;;4996264;28;20195;-76
2022/06/11 01:16:06;;;;;;;7.25;4.28;;;22.90;88.60;;;;;;5043155;28;20265;-79
2022/06/11 01:18:46;;;;;;;6.32;4.10;;;22.90;88.70;;;;;;5041965;28;20190;-77
2022/06/11 01:21:30;;;;;;;5.07;3.53;;;22.90;89.00;;;;;;5039175;28;20192;-78
2022/06/11 01:24:41;;;;;;;6.18;4.05;;;22.90;89.00;;;;;;5037073;28;20195;-79
2022/06/11 01:27:30;;;;;;;9.35;4.10;;;22.80;89.50;;;;;;5013277;28;20201;-78
2022/06/11 01:30:01;;;;;;;7.22;3.80;;;22.80;89.90;;;;;;5044852;28;20191;-78
2022/06/11 01:32:41;;;;;;;8.05;4.25;;;22.80;90.20;;;;;;5040875;28;20191;-81
2022/06/11 01:35:19;;;;;;;10.02;3.90;;;22.70;90.20;;;;;;5043355;28;20215;-78
2022/06/11 01:37:52;;;;;;;7.05;3.90;;;22.70;90.20;;;;;;5042347;28;20194;-79
2022/06/11 01:40:30;;;;;;;5.25;3.83;;;22.70;90.50;;;;;;5043523;28;20183;-78
2022/06/11 01:43:04;;;;;;;9.00;4.25;;;22.60;90.60;;;;;;5043247;28;20257;-77
2022/06/11 01:45:37;;;;;;;6.38;4.13;;;22.60;90.60;;;;;;5043734;28;20608;-77
2022/06/11 01:48:11;;;;;;;8.18;4.28;;;22.60;90.60;;;;;;5046017;28;20198;-78
2022/06/11 01:50:45;;;;;;;11.02;4.65;;;22.60;90.60;;;;;;5049223;28;20213;-77
2022/06/11 01:53:35;;;;;;;8.98;4.40;;;22.50;90.60;;;;;;5042762;28;20194;-77
2022/06/11 01:56:33;;;;;;;8.02;4.30;;;22.50;90.80;;;;;;5039746;28;20205;-77
2022/06/11 01:59:27;;;;;;;10.77;4.50;;;22.50;91.10;;;;;;5043617;28;20574;-78
2022/06/11 02:02:16;;;;;;;8.32;4.15;;;22.50;91.10;;;;;;5038808;28;20183;-78
2022/06/11 02:04:54;;;;;;;10.73;4.47;;;22.50;91.00;;;;;;5037673;28;20190;-78
2022/06/11 02:07:33;;;;;;;9.93;4.15;;;22.50;91.00;;;;;;5040437;28;20190;-78
2022/06/11 02:10:08;;;;;;;8.57;4.10;;;22.50;91.10;;;;;;5041749;28;20199;-78
2022/06/11 02:12:42;;;;;;;9.25;4.57;;;22.50;91.10;;;;;;5042209;28;20195;-77
2022/06/11 02:15:15;;;;;;;9.73;4.65;;;22.40;91.30;;;;;;5038028;28;20662;-78
2022/06/11 02:17:49;;;;;;;11.50;4.57;;;22.40;91.40;;;;;;5039656;28;20865;-77
2022/06/11 02:20:21;;;;;;;10.07;4.40;;;22.40;91.40;;;;;;5041875;28;20191;-77
2022/06/11 02:22:56;;;;;;;8.70;4.88;;;22.30;91.40;;;;;;5041235;28;20194;-77
2022/06/11 02:25:28;;;;;;;8.35;4.57;;;22.30;91.30;;;;;;5040634;28;20201;-78
2022/06/11 02:28:00;;;;;;;8.02;4.35;;;22.30;91.30;;;;;;5041117;28;20222;-77
2022/06/11 02:30:31;;;;;;;7.00;4.28;;;22.30;91.40;;;;;;5038638;28;20754;-77
2022/06/11 02:33:02;;;;;;;6.40;4.18;;;22.30;91.40;;;;;;5037975;28;20754;-78
2022/06/11 02:35:36;;;;;;;8.90;4.50;;;22.30;91.40;;;;;;5044804;28;20240;-78
2022/06/11 02:38:07;;;;;;;6.47;4.30;;;22.30;91.60;;;;;;5047305;28;20186;-78
2022/06/11 02:40:44;;;;;;;8.80;4.40;;;22.30;91.70;;;;;;5044135;28;20187;-77
2022/06/11 02:43:13;;;;;;;8.98;4.18;;;22.20;91.80;;;;;;5044072;28;20194;-78
2022/06/11 02:45:42;;;;;;;6.40;4.47;;;22.20;91.80;;;;;;5043318;28;20195;-77
2022/06/11 02:48:12;;;;;;;6.38;4.57;;;22.20;91.70;;;;;;5046809;28;20194;-77
2022/06/11 02:50:42;;;;;;;6.88;4.38;;;22.20;91.70;;;;;;5047175;28;20194;-76
2022/06/11 02:53:11;;;;;;;7.18;4.30;;;22.20;91.60;;;;;;5045743;28;20198;-78
2022/06/11 02:55:40;;;;;;;7.63;4.97;;;22.20;91.60;;;;;;5042886;28;20219;-77
2022/06/11 02:58:11;;;;;;;7.72;4.38;;;22.20;91.70;;;;;;5044980;28;20218;-77
2022/06/11 03:00:43;;;;;;;10.38;4.50;;;22.30;91.80;;;;;;5043938;28;20194;-77
2022/06/11 03:03:13;;;;;;;7.70;4.65;;;22.30;91.90;;;;;;5043160;28;20193;-77
2022/06/11 03:05:43;;;;;;;7.00;4.72;;;22.20;91.90;;;;;;5043612;28;20209;-78
2022/06/11 03:08:11;;;;;;;9.63;4.22;;;22.20;91.90;;;;;;5041995;28;20202;-77
2022/06/11 03:10:40;;;;;;;10.63;5.25;;;22.20;92.20;;;;;;5040799;28;20213;-77
2022/06/11 03:13:08;;;;;;;7.93;4.70;;;22.20;92.10;;;;;;5039976;28;20199;-77
2022/06/11 03:15:37;;;;;;;7.25;4.90;;;22.30;92.20;;;;;;5044121;28;20223;-77
2022/06/11 03:18:06;;;;;;;8.07;4.95;;;22.20;92.20;;;;;;5036572;28;20199;-77
2022/06/11 03:20:36;;;;;;;9.32;4.65;;;22.20;92.30;;;;;;5044470;28;20195;-77
2022/06/11 03:23:04;;;;;;;8.68;5.47;;;22.30;92.30;;;;;;5041255;28;20203;-76
2022/06/11 03:25:34;;;;;;;8.65;5.85;;;22.20;92.20;;;;;;5043114;28;20691;-76
2022/06/11 03:28:06;;;;;;;9.00;4.85;;;22.20;92.20;;;;;;5039400;28;20205;-76
2022/06/11 03:30:35;;;;;;;12.35;5.32;;;22.30;92.40;;;;;;5039979;28;20191;-76
2022/06/11 03:33:04;;;;;;;7.80;4.95;;;22.20;92.70;;;;;;5044256;28;20286;-77
2022/06/11 03:35:33;;;;;;;9.85;5.07;;;22.20;92.70;;;;;;5046295;28;20290;-77
2022/06/11 03:38:07;;;;;;;9.23;4.88;;;22.20;92.70;;;;;;5040456;28;20421;-76
2022/06/11 03:40:35;;;;;;;8.35;4.90;;;22.20;92.60;;;;;;5041756;28;20734;-77
2022/06/11 03:43:04;;;;;;;8.60;5.20;;;22.20;92.60;;;;;;5039858;28;20195;-76
2022/06/11 03:45:34;;;;;;;9.23;5.45;;;22.30;92.60;;;;;;5047438;28;20202;-77
2022/06/11 03:48:02;;;;;;;12.68;5.35;;;22.30;92.60;;;;;;5044631;28;20195;-76
2022/06/11 03:50:33;;;;;;;11.00;5.07;;;22.30;92.70;;;;;;5040411;28;20234;-76
2022/06/11 03:53:05;;;;;;;8.32;4.90;;;22.30;92.70;;;;;;5039026;28;20235;-78
2022/06/11 03:55:34;;;;;;;7.70;4.85;;;22.30;92.60;;;;;;5041493;28;20191;-77
2022/06/11 03:58:03;;;;;;;6.82;5.20;;;22.30;92.60;;;;;;5038380;28;20255;-75
2022/06/11 04:03:19;;;;;;;9.23;5.05;;;22.40;92.70;;;;;;5039277;28;20194;-77
2022/06/11 04:05:49;;;;;;;8.73;4.75;;;22.40;92.50;;;;;;5037129;28;20213;-76
2022/06/11 04:08:19;;;;;;;11.30;5.10;;;22.40;92.50;;;;;;5040868;28;20265;-76
2022/06/11 04:10:48;;;;;;;9.32;4.85;;;22.40;92.50;;;;;;5044384;28;20668;-76
2022/06/11 04:13:17;;;;;;;6.55;4.55;;;22.40;92.50;;;;;;5047721;28;20210;-76
2022/06/11 04:15:46;;;;;;;10.77;5.38;;;22.50;92.40;;;;;;5043344;28;20194;-76
2022/06/11 04:18:27;;;;;;;9.82;5.68;;;22.50;92.40;;;;;;5040739;28;20219;-76
2022/06/11 04:20:56;;;;;;;6.55;4.68;;;22.50;92.40;;;;;;5042374;28;20285;-76
2022/06/11 04:23:29;;;;;;;9.48;4.72;;;22.50;92.30;;;;;;5042014;28;20203;-76
2022/06/11 04:25:59;;;;;;;6.72;4.75;;;22.60;92.30;;;;;;5043342;28;20187;-77
2022/06/11 04:28:28;;;;;;;8.05;4.57;;;22.60;92.20;;;;;;5038819;28;20202;-76
2022/06/11 04:30:57;;;;;;;9.48;4.93;;;22.60;92.20;;;;;;5044303;28;20194;-77
2022/06/11 04:33:26;;;;;;;6.22;4.53;;;22.60;92.30;;;;;;5040526;28;20722;-77
2022/06/11 04:35:55;;;;;;;7.30;3.97;;;22.60;92.20;;;;;;5040126;28;20191;-76
2022/06/11 04:38:25;;;;;;;11.05;4.28;;;22.60;92.20;;;;;;5039601;28;20939;-76
2022/06/11 04:40:55;;;;;;;6.55;4.30;;;22.60;92.30;;;;;;5043109;28;20183;-76
2022/06/11 04:43:23;;;;;;;8.27;4.38;;;22.60;92.30;;;;;;5039622;28;20191;-76
2022/06/11 04:45:51;;;;;;;5.82;4.25;;;22.60;92.30;;;;;;5045639;28;20192;-75
2022/06/11 04:48:20;;;;;;;8.50;4.28;;;22.60;92.20;;;;;;5045911;28;20187;-76
2022/06/11 04:50:49;;;;;;;8.00;4.72;;;22.70;92.30;;;;;;5046685;28;20195;-76
2022/06/11 04:53:17;;;;;;;7.93;4.25;;;22.70;92.30;;;;;;5047922;28;20567;-76
2022/06/11 04:55:47;;;;;;;8.45;4.05;;;22.70;92.20;;;;;;5037891;28;20228;-77
2022/06/11 04:58:16;;;;;;;5.85;4.10;;;22.70;92.20;;;;;;5049263;28;20214;-76
2022/06/11 05:00:44;;;;;;;6.43;4.30;;;22.70;92.10;;;;;;5044826;28;20640;-76
2022/06/11 05:03:13;;;;;;;8.02;4.68;;;22.70;92.10;;;;;;5042927;28;20198;-77
2022/06/11 05:05:42;;;;;;;8.38;4.28;;;22.70;92.00;;;;;;5040814;28;20245;-77
2022/06/11 05:08:12;;;;;;;6.38;3.97;;;22.80;92.00;;;;;;5042883;28;20201;-76
2022/06/11 05:10:41;;;;;;;6.90;4.45;;;22.80;92.00;;;;;;5040343;28;20195;-76
2022/06/11 05:13:12;;;;;;;6.78;4.28;;;22.80;91.90;;;;;;5042778;28;20187;-76
2022/06/11 05:15:43;;;;;;;7.57;4.55;;;22.80;91.80;;;;;;5041631;28;20471;-75
2022/06/11 05:18:12;;;;;;;6.57;4.15;;;22.80;91.80;;;;;;5033643;28;20264;-76
2022/06/11 05:20:41;;;;;;;6.43;4.18;;;22.80;91.80;;;;;;5034546;28;20210;-76
2022/06/11 05:23:10;;;;;;;8.68;4.90;;;22.80;91.70;;;;;;5042220;28;20195;-75
2022/06/11 05:25:41;;;;;;;8.00;4.45;;;22.80;91.70;;;;;;5040305;28;20558;-76
2022/06/11 05:28:16;;;;;;;9.45;4.65;;;22.80;91.60;;;;;;5042461;28;20202;-76
2022/06/11 05:30:45;;;;;;;6.30;4.25;;;22.80;91.60;;;;;;5042586;28;20226;-76
2022/06/11 05:33:14;;;;;;;7.45;4.68;;;22.80;91.60;;;;;;5039662;28;20445;-76
2022/06/11 05:35:45;;;;;;;7.35;4.10;;;22.80;91.80;;;;;;5039714;28;20210;-75
2022/06/11 05:38:17;;;;;;;6.60;3.83;;;22.80;91.70;;;;;;5044945;28;20232;-76
2022/06/11 05:40:51;;;;;;;7.57;4.35;;;22.80;91.70;;;;;;5043648;28;20286;-75
2022/06/11 05:43:21;;;;;;;10.20;4.72;;;22.80;91.60;;;;;;5037667;28;20195;-75
2022/06/11 05:45:54;;;;;;;7.15;4.30;;;22.80;91.60;;;;;;5042789;28;20257;-75
2022/06/11 05:48:27;;;;;;;8.65;4.22;;;22.80;91.60;;;;;;5043676;28;20194;-76
2022/06/11 05:50:58;;;;;;;6.45;4.32;;;22.80;91.50;;;;;;5039728;28;20179;-76
2022/06/11 05:53:32;;;;;;;9.32;4.65;;;22.80;91.50;;;;;;5032901;28;20211;-74
2022/06/11 05:56:03;;;;;;;6.50;4.10;;;22.80;91.40;;;;;;5038588;28;20190;-75
2022/06/11 05:58:38;;;;;;;6.63;4.05;;;22.80;91.40;;;;;;5038890;28;20206;-75
2022/06/11 06:01:08;;;;;;;6.45;4.15;;;22.80;91.40;;;;;;5042969;28;20197;-78
2022/06/11 06:03:37;;;;;;;6.35;3.83;;;22.90;91.40;;;;;;5040596;28;20195;-75
2022/06/11 06:06:05;;;;;;;10.05;4.22;;;22.90;91.20;;;;;;5044151;28;20187;-74
2022/06/11 06:08:34;;;;;;;8.98;3.35;;;22.90;91.10;;;;;;5043201;28;20187;-75
2022/06/11 06:11:02;;;;;;;5.03;3.40;;;23.00;91.00;;;;;;5044244;28;20195;-74
2022/06/11 06:13:47;;;;;;;7.80;3.42;;;23.00;90.80;;;;;;5037838;28;20768;-75
2022/06/11 06:16:16;;;;;;;9.52;3.67;;;23.00;90.70;;;;;;5018585;28;20278;-75
2022/06/11 06:18:45;;;;;;;7.00;3.85;;;23.00;90.60;;;;;;5019370;28;20230;-75
2022/06/11 06:21:14;;;;;;;6.55;3.55;;;23.10;90.70;;;;;;5005599;28;20200;-75
2022/06/11 06:23:42;;;;;;;5.22;3.38;;;23.20;90.60;;;;;;5015161;28;20560;-76
2022/06/11 06:26:11;;;;;;;7.18;3.65;;;23.30;90.60;;;;;;5020899;28;20195;-76
2022/06/11 06:28:41;;;;;;;7.70;3.65;;;23.30;90.30;;;;;;5022794;28;20198;-75
2022/06/11 06:31:11;;;;;;;5.50;3.78;;;23.40;90.30;;;;;;5021103;28;20865;-76
2022/06/11 06:33:41;;;;;;;5.75;2.90;;;23.50;90.10;;;;;;5022596;28;20226;-76
2022/06/11 06:36:11;;;;;;;9.80;3.85;;;23.50;90.00;;;;;;5020662;28;20191;-75
2022/06/11 06:38:40;;;;;;;5.32;3.17;;;23.60;89.70;;;;;;5020654;28;20207;-76
2022/06/11 06:41:09;;;;;;;11.73;3.95;;;23.60;88.70;;;;;;5022928;28;20195;-76
2022/06/11 06:43:38;;;;;;;7.25;3.50;;;23.60;88.10;;;;;;5023307;28;20203;-76
2022/06/11 06:46:08;;;;;;;5.70;3.00;;;23.60;88.30;;;;;;5022722;28;20245;-78
2022/06/11 06:48:36;;;;;;;5.45;3.38;;;23.70;88.40;;;;;;5020978;28;20282;-75
2022/06/11 06:51:05;;;;;;;6.38;3.45;;;23.70;87.90;;;;;;5021251;28;20199;-76
2022/06/11 06:53:36;;;;;;;4.72;3.17;;;23.70;88.00;;;;;;5016592;28;20411;-76
2022/06/11 06:56:04;;;;;;;9.70;3.38;;;23.70;88.10;;;;;;5021123;28;20204;-75
2022/06/11 06:58:33;;;;;;;9.68;3.78;;;23.80;88.10;;;;;;5019522;28;20235;-75
2022/06/11 07:01:02;;;;;;;10.32;3.20;;;23.80;88.30;;;;;;5021019;28;20230;-76
2022/06/11 07:03:32;;;;;;;8.43;3.58;;;23.80;88.10;;;;;;5021127;28;20200;-76
2022/06/11 07:06:02;;;;;;;5.38;3.42;;;23.80;88.00;;;;;;5021194;28;20191;-74
2022/06/11 07:08:31;;;;;;;6.78;3.53;;;23.80;87.70;;;;;;5019523;28;20522;-75
2022/06/11 07:11:02;;;;;;;4.75;3.40;;;23.80;87.80;;;;;;5022353;28;20203;-76
2022/06/11 07:13:32;;;;;;;6.43;3.50;;;23.80;87.80;;;;;;5020815;28;20192;-75
2022/06/11 07:16:04;;;;;;;6.63;3.25;;;23.80;87.50;;;;;;5018868;28;20192;-77
2022/06/11 07:18:39;;;;;;;5.05;3.45;;;23.80;87.70;;;;;;5017034;28;20661;-79
2022/06/11 07:21:12;;;;;;;6.60;3.73;;;23.80;87.70;;;;;;5018284;28;20439;-76
2022/06/11 07:23:45;;;;;;;6.72;3.60;;;23.90;88.10;;;;;;5017258;28;20196;-79
2022/06/11 07:26:19;;;;;;;6.90;3.88;;;23.80;87.90;;;;;;5015936;28;20196;-76
2022/06/11 07:28:51;;;;;;;8.23;3.95;;;23.80;87.70;;;;;;5016636;28;20203;-77
2022/06/11 07:31:20;;;;;;;7.68;3.63;;;23.90;87.80;;;;;;5023727;28;20200;-77
2022/06/11 07:33:50;;;;;;;4.63;3.25;;;23.90;87.80;;;;;;5017269;28;20200;-76
2022/06/11 07:36:19;;;;;;;10.10;3.50;;;24.00;87.80;;;;;;5023654;28;20586;-78
2022/06/11 07:38:48;;;;;;;6.82;3.13;;;24.00;87.80;;;;;;5023577;28;20235;-79
2022/06/11 07:41:17;;;;;;;6.72;3.95;;;24.00;87.80;;;;;;5019964;28;20188;-79
2022/06/11 07:43:45;;;;;;;6.18;3.13;;;24.10;87.60;;;;;;5026798;28;20199;-77
2022/06/11 07:46:14;;;;;;;8.73;3.72;;;24.10;87.50;;;;;;5025977;28;20195;-77
2022/06/11 07:48:43;;;;;;;5.53;2.80;;;24.10;87.30;;;;;;5022122;28;20208;-78
2022/06/11 07:51:13;;;;;;;5.38;3.28;;;24.10;87.10;;;;;;5024182;28;20196;-78
2022/06/11 07:53:41;;;;;;;6.13;3.55;;;24.20;87.30;;;;;;5021885;28;20211;-77
2022/06/11 07:56:10;;;;;;;5.75;3.70;;;24.20;87.20;;;;;;5021764;28;20288;-77
2022/06/11 07:58:38;;;;;;;7.50;3.83;;;24.20;87.20;;;;;;5023930;28;20227;-75
2022/06/11 08:01:13;;;;;;;5.00;3.55;;;24.20;87.20;;;;;;5022287;28;20199;-79
2022/06/11 08:03:42;;;;;;;5.88;3.72;;;24.20;87.20;;;;;;5024954;28;20227;-77
2022/06/11 08:06:10;;;;;;;7.05;3.38;;;24.30;87.30;;;;;;5015974;28;20759;-75
2022/06/11 08:08:41;;;;;;;7.75;4.20;;;24.30;87.30;;;;;;5022153;28;20200;-76
2022/06/11 08:11:09;;;;;;;6.47;3.40;;;24.30;87.30;;;;;;5021145;28;20195;-78
2022/06/11 08:13:38;;;;;;;6.43;3.70;;;24.40;87.20;;;;;;5023017;28;20219;-77
2022/06/11 08:16:06;;;;;;;7.75;3.72;;;24.40;87.00;;;;;;5022577;28;20195;-76
2022/06/11 08:18:35;;;;;;;6.18;3.33;;;24.40;86.90;;;;;;5021051;28;20220;-77
2022/06/11 08:21:04;;;;;;;4.93;2.92;;;24.40;86.90;;;;;;5021596;28;20203;-78
2022/06/11 08:23:32;;;;;;;5.78;3.40;;;24.40;86.60;;;;;;5025724;28;20196;-78
2022/06/11 08:26:02;;;;;;;4.82;3.05;;;24.30;86.40;;;;;;5018453;28;20210;-78
2022/06/11 08:28:31;;;;;;;4.50;2.80;;;24.30;86.40;;;;;;5013119;28;20207;-77
2022/06/11 08:31:03;;;;;;;4.88;3.08;;;24.40;86.50;;;;;;5021432;28;20203;-78
2022/06/11 08:33:31;;;;;;;5.15;3.05;;;24.40;86.60;;;;;;5023213;28;20658;-77
2022/06/11 08:36:00;;;;;;;6.82;3.78;;;24.40;86.40;;;;;;5023192;28;20200;-77
2022/06/11 08:38:28;;;;;;;6.55;3.25;;;24.40;86.40;;;;;;5022823;28;20196;-79
2022/06/11 08:40:57;;;;;;;5.00;3.42;;;24.50;86.40;;;;;;5022742;28;20219;-79
2022/06/11 08:43:29;;;;;;;3.90;2.97;;;24.50;86.50;;;;;;5024949;28;20207;-77
2022/06/11 08:46:00;;;;;;;4.32;2.92;;;24.50;86.60;;;;;;5021761;28;20188;-81
2022/06/11 08:48:43;;;;;;;6.93;3.67;;;24.60;86.40;;;;;;5022543;28;20210;-77
2022/06/11 08:51:19;;;;;;;5.05;3.05;;;24.60;86.10;;;;;;5022693;28;20198;-80
2022/06/11 08:53:51;;;;;;;6.47;3.13;;;24.70;85.60;;;;;;5023313;28;20219;-76
2022/06/11 08:56:25;;;;;;;6.03;2.72;;;24.70;85.60;;;;;;5024671;28;20192;-81
2022/06/11 08:59:06;;;;;;;6.07;2.97;;;24.80;85.50;;;;;;5022328;28;20211;-80
2022/06/11 09:01:47;;;;;;;4.00;3.00;;;24.80;85.40;;;;;;5017049;28;20198;-81
2022/06/11 09:04:44;;;;;;;4.38;3.13;;;24.80;85.20;;;;;;5019411;28;20187;-76
2022/06/11 09:07:25;;;;;;;6.50;3.35;;;24.80;85.50;;;;;;5013011;28;20196;-76
2022/06/11 09:10:14;;;;;;;5.70;3.85;;;24.90;86.00;;;;;;5023655;28;20274;-77
2022/06/11 09:13:09;;;;;;;5.82;3.97;;;24.90;86.40;;;;;;5018458;28;20191;-76
2022/06/11 09:15:52;;;;;;;5.10;3.63;;;24.80;86.90;;;;;;5025204;28;20195;-77
2022/06/11 09:18:39;;;;;;;7.80;3.38;;;24.80;87.10;;;;;;5024348;28;20282;-76
2022/06/11 09:21:25;;;;;;;4.90;3.30;;;24.80;87.40;;;;;;5023090;28;20195;-76
2022/06/11 09:24:11;;;;;;;6.05;3.20;;;24.80;87.50;;;;;;5019859;28;20198;-77
2022/06/11 09:26:45;;;;;;;6.65;3.20;;;24.80;87.30;;;;;;5022255;28;20454;-76
2022/06/11 09:29:20;;;;;;;8.35;3.85;;;24.80;87.00;;;;;;5022104;28;20199;-76
2022/06/11 09:31:57;;;;;;;7.88;3.90;;;24.80;87.10;;;;;;5020534;28;20194;-77
2022/06/11 09:34:36;;;;;;;4.78;3.22;;;24.80;87.30;;;;;;5019633;28;20192;-75
2022/06/11 09:37:13;;;;;;;7.20;4.25;;;24.80;87.50;;;;;;5018416;28;20191;-77
2022/06/11 09:39:45;;;;;;;7.68;3.78;;;24.80;87.60;;;;;;5023929;28;20207;-75
2022/06/11 09:42:39;;;;;;;7.30;4.13;;;24.80;87.80;;;;;;5023472;28;20190;-76
2022/06/11 09:45:16;;;;;;;6.93;4.20;;;24.70;88.10;;;;;;5020825;28;20643;-76
2022/06/11 09:47:55;;;;;;;7.47;4.38;;;24.70;88.20;;;;;;5029068;28;20399;-76
2022/06/11 09:50:30;;;;;;;8.48;4.70;;;24.70;88.60;;;;;;5025441;28;20274;-77
2022/06/11 09:53:12;;;;;;;7.57;4.50;;;24.70;88.50;;;;;;5023422;28;20201;-76
2022/06/11 09:55:47;;;;;;;7.32;5.60;;;24.70;88.50;;;;;;5019025;28;20192;-76
2022/06/11 09:58:23;;;;;;;9.23;5.13;;;24.70;88.60;;;;;;5020076;28;20226;-76
2022/06/11 10:01:16;;;;;;;7.90;5.75;;;24.70;88.60;;;;;;5017500;28;20231;-75
2022/06/11 10:03:52;;;;;;;9.48;6.05;;;24.60;88.90;;;;;;5019965;28;20246;-75
2022/06/11 10:06:24;;;;;;;12.07;6.13;;;24.60;89.00;;;;;;5026107;28;20191;-75
2022/06/11 10:08:57;;;;;;;7.35;5.68;;;24.60;89.20;;;;;;5012200;28;20200;-76
2022/06/11 10:11:29;;;;;;;6.88;5.30;;;24.60;89.50;;;;;;5023515;28;20200;-76
2022/06/11 10:16:51;;;;;;;9.82;5.55;;;24.60;89.50;;;;;;5012359;28;20206;-76
2022/06/11 10:19:25;;;;;;;6.55;5.00;;;24.70;89.70;;;;;;5019255;28;20187;-76
2022/06/11 10:21:59;;;;;;;7.18;4.90;;;24.70;89.40;;;;;;5022856;28;20195;-75
2022/06/11 10:24:32;;;;;;;7.55;5.00;;;24.70;89.40;;;;;;5021622;28;20187;-75
2022/06/11 10:27:06;;;;;;;9.38;5.82;;;24.70;89.40;;;;;;5018710;28;20195;-75
2022/06/11 10:29:40;;;;;;;8.57;4.95;;;24.70;89.00;;;;;;5022240;28;20187;-76
2022/06/11 10:32:13;;;;;;;7.10;4.95;;;24.70;89.70;;;;;;5020934;28;20188;-76
2022/06/11 10:34:48;;;;;;;6.13;4.60;;;24.70;88.60;;;;;;5021127;28;20202;-76
2022/06/11 10:37:25;;;;;;;9.27;4.47;;;24.80;88.50;;;;;;5020862;28;20195;-76
2022/06/11 10:40:03;;;;;;;6.85;4.82;;;24.80;88.40;;;;;;5019334;28;20219;-75
2022/06/11 10:42:39;;;;;;;5.55;4.28;;;24.80;88.40;;;;;;5022506;28;20188;-76
2022/06/11 10:45:14;;;;;;;8.40;4.80;;;24.90;88.30;;;;;;5022470;28;20637;-77
2022/06/11 10:47:48;;;;;;;11.38;4.97;;;24.90;88.10;;;;;;5019846;28;20615;-77
2022/06/11 10:50:23;;;;;;;8.43;4.30;;;24.90;87.70;;;;;;5022528;28;20653;-77
2022/06/11 10:53:00;;;;;;;6.88;5.07;;;24.90;87.40;;;;;;5023889;28;20198;-77
2022/06/11 10:55:36;;;;;;;8.15;5.90;;;24.90;87.50;;;;;;5017715;28;20206;-76
2022/06/11 10:58:16;;;;;;;8.38;5.47;;;24.90;87.50;;;;;;5023902;28;20218;-77
2022/06/11 11:00:53;;;;;;;8.25;5.18;;;24.90;87.50;;;;;;5026529;28;20219;-77
2022/06/11 11:03:29;;;;;;;8.20;5.78;;;24.90;87.30;;;;;;5021126;28;20661;-76
2022/06/11 11:06:04;;;;;;;8.95;6.05;;;24.90;87.60;;;;;;5021268;28;20203;-76
2022/06/11 11:08:35;;;;;;;7.72;5.68;;;24.90;87.80;;;;;;5015021;28;20203;-77
2022/06/11 11:11:10;;;;;;;10.30;6.18;;;24.90;88.00;;;;;;5027454;28;20184;-76
2022/06/11 11:13:42;;;;;;;10.02;6.20;;;24.90;88.20;;;;;;5026735;28;20226;-76
2022/06/11 11:16:23;;;;;;;8.45;6.10;;;24.90;88.10;;;;;;5024332;28;21364;-76
2022/06/11 11:19:03;;;;;;;10.68;6.22;;;24.90;88.20;;;;;;5019439;28;20184;-77
2022/06/11 11:21:36;;;;;;;9.20;5.90;;;24.90;88.30;;;;;;5027145;28;20853;-76
2022/06/11 11:24:12;;;;;;;8.27;6.22;;;24.90;88.30;;;;;;5021293;28;20192;-76
2022/06/11 11:26:53;;;;;;;10.32;5.93;;;25.00;88.50;;;;;;5026551;28;20235;-76
2022/06/11 11:29:26;;;;;;;9.27;5.43;;;25.00;88.30;;;;;;5026858;28;20250;-77
2022/06/11 11:31:58;;;;;;;7.15;5.50;;;25.00;88.30;;;;;;5025549;28;20199;-78
2022/06/11 11:34:46;;;;;;;6.68;5.13;;;25.00;88.20;;;;;;5025643;28;20730;-79
2022/06/11 11:37:32;;;;;;;6.72;5.38;;;25.10;88.20;;;;;;5023676;28;20721;-76
2022/06/11 11:40:02;;;;;;;9.18;4.90;;;25.10;88.00;;;;;;5024160;28;20189;-77
2022/06/11 11:42:35;;;;;;;7.80;5.22;;;25.20;88.90;;;;;;5026344;28;20200;-77
2022/06/11 11:45:20;;;;;;;7.60;5.05;;;25.10;87.90;;;;;;5026497;28;20642;-77
2022/06/11 11:47:51;;;;;;;11.32;5.63;;;25.10;87.90;;;;;;5024152;28;20199;-76
2022/06/11 11:50:25;;;;;;;9.57;4.25;;;25.10;87.60;;;;;;5023992;28;20274;-77
2022/06/11 11:53:02;;;;;;;7.82;5.55;;;25.10;87.70;;;;;;5023002;28;20183;-77
2022/06/11 11:55:34;;;;;;;7.07;5.00;;;25.10;87.70;;;;;;5021541;28;20203;-77
2022/06/11 11:58:04;;;;;;;9.27;5.55;;;25.10;87.70;;;;;;5021368;28;20633;-77
2022/06/11 12:00:42;;;;;;;9.02;5.88;;;25.20;87.90;;;;;;5005918;28;20247;-77
2022/06/11 12:03:20;;;;;;;8.55;5.43;;;25.20;87.90;;;;;;5014004;28;20192;-77
2022/06/11 12:05:52;;;;;;;9.63;5.40;;;25.20;87.80;;;;;;5022415;28;20188;-76
2022/06/11 12:08:27;;;;;;;7.18;5.55;;;25.20;87.80;;;;;;5023256;28;20201;-77
2022/06/11 12:11:00;;;;;;;8.80;6.15;;;25.20;87.80;;;;;;5019826;28;20196;-76
2022/06/11 12:13:31;;;;;;;7.93;5.55;;;25.20;87.70;;;;;;5025145;28;20192;-76
2022/06/11 12:16:02;;;;;;;9.75;6.38;;;25.20;87.70;;;;;;5024610;28;20751;-76
2022/06/11 12:18:42;;;;;;;8.30;5.93;;;25.10;87.60;;;;;;5019413;28;20195;-77
2022/06/11 12:21:15;;;;;;;11.73;7.03;;;25.10;87.70;;;;;;5022080;28;20253;-77
2022/06/11 12:23:48;;;;;;;11.38;6.85;;;25.10;87.80;;;;;;5024425;28;20200;-78
2022/06/11 12:26:19;;;;;;;10.00;7.38;;;25.10;87.90;;;;;;5019458;28;20729;-79
2022/06/11 12:28:52;;;;;;;11.40;7.97;;;25.10;88.10;;;;;;5016082;28;20665;-79
2022/06/11 12:31:21;;;;;;;10.13;6.95;;;25.00;88.50;;;;;;5016486;28;20196;-79
2022/06/11 12:33:52;;;;;;;11.18;8.10;;;25.00;88.50;;;;;;5016905;28;20696;-79
2022/06/11 12:36:33;;;;;;;10.85;7.75;;;25.00;88.70;;;;;;5021412;28;20274;-78
2022/06/11 12:39:11;;;;;;;10.63;7.35;;;25.10;89.00;;;;;;5018202;28;20275;-77
2022/06/11 12:41:47;;;;;;;12.25;8.05;;;25.00;89.20;;;;;;5020707;28;20225;-77
2022/06/11 12:44:41;;;;;;;16.85;9.38;;;25.10;89.70;;;;;;5023759;28;20219;-75
2022/06/11 12:47:31;;;;;;;10.55;7.97;;;25.00;89.70;;;;;;5020460;28;20191;-79
2022/06/11 12:50:32;;;;;;;10.07;6.82;;;25.10;89.70;;;;;;5019498;28;20613;-76
2022/06/11 12:53:08;;;;;;;6.93;4.93;;;25.00;89.50;;;;;;5023821;28;20187;-75
2022/06/11 12:56:00;;;;;;;6.72;4.22;;;25.10;89.40;;;;;;5022970;28;20457;-76
2022/06/11 12:58:40;;;;;;;6.13;3.90;;;25.10;89.30;;;;;;5023595;28;20191;-75
2022/06/11 13:01:16;;;;;;;5.88;3.75;;;25.10;89.10;;;;;;5025239;28;21012;-75
2022/06/11 13:04:16;;;;;;;4.90;3.95;;;25.00;88.50;;;;;;5025872;28;20250;-75
2022/06/11 13:06:56;;;;;;;6.57;4.70;;;25.00;88.30;;;;;;5017262;28;20196;-76
2022/06/11 13:09:44;;;;;;;6.03;4.13;;;25.00;88.10;;;;;;5021937;28;20297;-75
2022/06/11 13:12:24;;;;;;;6.70;3.90;;;25.00;88.20;;;;;;5024754;28;20195;-75
2022/06/11 13:15:19;;;;;;;10.75;4.78;;;25.00;88.20;;;;;;5025587;28;20780;-75
2022/06/11 13:18:04;;;;;;;8.68;5.05;;;25.00;88.20;;;;;;5022701;28;20184;-75
2022/06/11 13:20:38;;;;;;;5.20;3.53;;;24.90;88.00;;;;;;5022701;28;20223;-75
2022/06/11 13:23:16;;;;;;;7.55;4.97;;;24.90;87.90;;;;;;5021648;28;20194;-75
2022/06/11 13:25:52;;;;;;;8.77;5.03;;;24.90;88.00;;;;;;5025023;28;20200;-76